Fort Flagler, Washington
Current Conditions -  °F | °C
As of 11:15 AM on Tuesday 21 Oct 2014 (Local Time) from KNUW Reporting Station
Broken Clouds Broken Clouds  
Wind Chill: 60°   Ceiling: 1300
Heat Index: 60°   Visibility: 10mi
Dew Point: 52°   Wind: 15mph
Humidity: 75%   Direction: 140°SE
Pressure: 29.88"   Gusts: 22mph
Location:  48.0545°N, 122.706°W
Report Text: KNUW 211815Z 14013G19KT 10SM BKN013 BKN017 BKN200 16/11 A2988 RMK AO2 T01560111 VISNO E $
Loading
Personal Weather Stations






























Interactive Weather Map
Tropical Storm Tracking
New forecast layout! Learn more

10-Day Weather Forecast

Advertisements
Track Severe Weather on mobile